Time;durP1;ratioP1;P1;durP2;ratioP2;P2;SDS_P1;SDS_P2;PMS_P1;PMS_P2;Temp;Humidity;BMP_temperature;BMP_pressure;BME280_temperature;BME280_humidity;BME280_pressure;Samples;Min_cycle;Max_cycle;Signal;HPM_P1;HPM_P2
2022/03/08 00:01:06;;;;;;;36.33;27.27;;;5.60;99.90;;;;;;5034102;28;20099;-88
2022/03/08 00:03:33;;;;;;;36.35;27.15;;;5.80;1.00;;;;;;5032971;28;20021;-88
2022/03/08 00:05:59;;;;;;;37.10;27.38;;;5.70;1.00;;;;;;5017885;28;20037;-88
2022/03/08 00:08:24;;;;;;;35.80;27.40;;;5.70;1.00;;;;;;5032927;28;20021;-87
2022/03/08 00:10:50;;;;;;;34.53;25.65;;;5.70;1.00;;;;;;5032561;28;20493;-88
2022/03/08 00:13:16;;;;;;;35.92;26.95;;;5.70;1.00;;;;;;5033131;28;20060;-88
2022/03/08 00:15:42;;;;;;;36.90;27.25;;;5.80;1.00;;;;;;5019167;28;20029;-87
2022/03/08 00:18:08;;;;;;;37.80;27.38;;;5.60;99.90;;;;;;5017493;28;20029;-88
2022/03/08 00:20:33;;;;;;;35.10;26.85;;;5.60;1.00;;;;;;5032732;28;20040;-88
2022/03/08 00:23:01;;;;;;;36.38;27.27;;;5.50;1.00;;;;;;5032973;28;20494;-88
2022/03/08 00:25:27;;;;;;;37.20;27.88;;;5.50;1.00;;;;;;5015040;28;20413;-87
2022/03/08 00:27:53;;;;;;;38.72;27.85;;;5.40;99.90;;;;;;5031502;28;20032;-88
2022/03/08 00:30:24;;;;;;;34.78;26.80;;;5.70;1.00;;;;;;5016454;28;20033;-88
2022/03/08 00:32:51;;;;;;;35.70;27.15;;;5.60;1.00;;;;;;5032174;28;20425;-88
2022/03/08 00:35:18;;;;;;;35.50;27.73;;;5.70;1.00;;;;;;5031856;28;20018;-88
2022/03/08 00:37:47;;;;;;;38.55;28.15;;;5.50;1.00;;;;;;5033131;28;20030;-88
2022/03/08 00:40:14;;;;;;;35.75;27.63;;;5.70;1.00;;;;;;5033068;28;20049;-88
2022/03/08 00:42:40;;;;;;;36.22;27.20;;;5.40;1.00;;;;;;5016218;28;20087;-88
2022/03/08 00:45:07;;;;;;;38.70;28.40;;;5.60;1.00;;;;;;5016522;28;20425;-88
2022/03/08 00:47:34;;;;;;;36.28;27.15;;;5.40;1.00;;;;;;5017972;28;20033;-88
2022/03/08 00:50:01;;;;;;;35.92;27.50;;;5.30;1.00;;;;;;5015179;28;20064;-88
2022/03/08 00:52:26;;;;;;;37.28;27.40;;;5.30;1.00;;;;;;5032810;28;20464;-88
2022/03/08 00:54:52;;;;;;;35.78;26.85;;;5.20;1.00;;;;;;5030499;28;20060;-88
2022/03/08 00:57:18;;;;;;;38.50;28.13;;;5.60;1.00;;;;;;5032126;28;20073;-88
2022/03/08 00:59:43;;;;;;;37.70;26.98;;;5.50;1.00;;;;;;5016761;28;20117;-88
2022/03/08 01:02:09;;;;;;;36.10;27.90;;;5.40;1.00;;;;;;5017535;28;20057;-88
2022/03/08 01:04:34;;;;;;;36.75;26.98;;;5.20;1.00;;;;;;5015133;28;20496;-88
2022/03/08 01:07:00;;;;;;;35.80;27.38;;;5.10;1.00;;;;;;5033534;28;20037;-89
2022/03/08 01:09:26;;;;;;;36.42;27.73;;;5.00;1.00;;;;;;5014565;28;20132;-87
2022/03/08 01:11:51;;;;;;;38.33;27.58;;;5.10;1.00;;;;;;5017385;28;20026;-88
2022/03/08 01:14:17;;;;;;;35.97;27.67;;;5.10;1.00;;;;;;5032754;28;20037;-88
2022/03/08 01:16:43;;;;;;;37.90;28.42;;;5.40;1.00;;;;;;5015190;28;20615;-88
2022/03/08 01:19:08;;;;;;;37.05;27.95;;;5.30;1.00;;;;;;5028601;28;20512;-88
2022/03/08 01:21:36;;;;;;;39.28;27.50;;;4.90;1.00;;;;;;5031727;28;20072;-88
2022/03/08 01:24:03;;;;;;;39.30;27.95;;;4.80;1.00;;;;;;5015856;28;20040;-88
2022/03/08 01:26:28;;;;;;;37.42;26.90;;;5.00;1.00;;;;;;5032397;28;20144;-88
2022/03/08 01:28:55;;;;;;;36.95;28.10;;;5.20;1.00;;;;;;5032146;28;20124;-88
2022/03/08 01:31:21;;;;;;;38.78;28.08;;;4.90;1.00;;;;;;5032328;28;20057;-88
2022/03/08 01:33:49;;;;;;;36.63;27.27;;;4.80;1.00;;;;;;5032801;28;20056;-89
2022/03/08 01:36:15;;;;;;;38.70;28.75;;;4.80;1.00;;;;;;5016931;28;20043;-88
2022/03/08 01:38:41;;;;;;;41.75;28.17;;;4.70;1.00;;;;;;5015541;28;20116;-88
2022/03/08 01:41:06;;;;;;;39.63;29.52;;;5.10;1.00;;;;;;5015994;28;20040;-88
2022/03/08 01:43:32;;;;;;;39.95;28.25;;;5.10;1.00;;;;;;5032378;28;20128;-88
2022/03/08 01:45:58;;;;;;;39.30;27.23;;;4.80;1.00;;;;;;5019590;28;20033;-88
2022/03/08 01:48:23;;;;;;;37.88;28.45;;;4.60;1.00;;;;;;5021274;28;20040;-88
2022/03/08 01:50:49;;;;;;;37.35;27.67;;;4.50;1.00;;;;;;5019155;28;20056;-88
2022/03/08 01:53:15;;;;;;;38.20;28.33;;;4.40;1.00;;;;;;5018821;28;20029;-88
2022/03/08 01:55:40;;;;;;;38.60;27.88;;;4.40;1.00;;;;;;5019712;28;20029;-88
2022/03/08 01:58:06;;;;;;;38.90;27.88;;;4.50;1.00;;;;;;5018479;28;20026;-88
2022/03/08 02:00:32;;;;;;;39.33;28.42;;;5.00;1.00;;;;;;5019463;28;20409;-88
2022/03/08 02:02:58;;;;;;;40.28;29.13;;;4.40;1.00;;;;;;5035326;28;20033;-88
2022/03/08 02:05:26;;;;;;;39.53;29.13;;;4.40;1.00;;;;;;5035433;28;20026;-89
2022/03/08 02:07:52;;;;;;;39.83;28.42;;;4.50;1.00;;;;;;5034713;28;20033;-88
2022/03/08 02:10:17;;;;;;;42.67;28.80;;;4.70;1.00;;;;;;5017906;28;20032;-88
2022/03/08 02:12:43;;;;;;;37.42;28.30;;;4.70;1.00;;;;;;5024472;28;20595;-88
2022/03/08 02:15:12;;;;;;;37.17;28.17;;;4.80;1.00;;;;;;5020381;28;20130;-88
2022/03/08 02:17:37;;;;;;;34.85;27.45;;;4.80;1.00;;;;;;5018958;28;20029;-88
2022/03/08 02:20:03;;;;;;;39.88;27.95;;;4.40;1.00;;;;;;5035208;28;20137;-88
2022/03/08 02:22:29;;;;;;;39.60;29.05;;;4.40;1.00;;;;;;5034403;28;20077;-88
2022/03/08 02:24:55;;;;;;;38.72;28.15;;;4.50;1.00;;;;;;5035349;28;20476;-88
2022/03/08 02:27:21;;;;;;;39.67;28.10;;;4.40;1.00;;;;;;5035024;28;20140;-88
2022/03/08 02:29:48;;;;;;;40.83;28.30;;;4.60;1.00;;;;;;5024395;28;20120;-88
2022/03/08 02:32:13;;;;;;;40.33;29.23;;;4.10;1.00;;;;;;5018622;28;20025;-87
2022/03/08 02:34:39;;;;;;;38.65;27.77;;;4.40;1.00;;;;;;5001981;28;20088;-88
2022/03/08 02:37:11;;;;;;;38.30;28.65;;;4.40;1.00;;;;;;5035389;28;20036;-88
2022/03/08 02:39:38;;;;;;;39.63;29.55;;;4.00;1.00;;;;;;5020013;28;20029;-88
2022/03/08 02:42:05;;;;;;;39.30;28.63;;;4.20;1.00;;;;;;5017853;28;20151;-88
2022/03/08 02:44:31;;;;;;;40.45;29.75;;;3.90;1.00;;;;;;5019523;28;20091;-88
2022/03/08 02:46:59;;;;;;;38.67;29.25;;;4.00;1.00;;;;;;5018667;28;20042;-88
2022/03/08 02:49:25;;;;;;;40.45;29.63;;;4.20;1.00;;;;;;5017080;28;20458;-88
2022/03/08 02:51:51;;;;;;;39.20;28.75;;;3.90;1.00;;;;;;5019523;28;20055;-88
2022/03/08 02:54:16;;;;;;;41.33;29.65;;;4.20;1.00;;;;;;5017283;28;20037;-87
2022/03/08 02:56:42;;;;;;;38.13;28.92;;;4.10;1.00;;;;;;5017322;28;20071;-88
2022/03/08 02:59:07;;;;;;;38.08;27.88;;;4.10;1.00;;;;;;5018110;28;20112;-88
2022/03/08 03:01:33;;;;;;;41.42;29.65;;;4.10;1.00;;;;;;5034905;28;20029;-88
2022/03/08 03:03:59;;;;;;;39.38;29.50;;;4.00;1.00;;;;;;5017168;28;20124;-88
2022/03/08 03:06:24;;;;;;;40.05;29.67;;;4.50;1.00;;;;;;5017467;28;20026;-88
2022/03/08 03:08:50;;;;;;;38.22;28.55;;;3.90;1.00;;;;;;5034104;28;20114;-88
2022/03/08 03:11:16;;;;;;;42.50;30.17;;;4.40;1.00;;;;;;5034249;28;20014;-89
2022/03/08 03:13:41;;;;;;;42.03;29.38;;;3.90;1.00;;;;;;5017455;28;20504;-88
2022/03/08 03:16:07;;;;;;;40.40;28.58;;;4.30;1.00;;;;;;5030180;28;20031;-88
2022/03/08 03:18:33;;;;;;;41.47;29.33;;;4.00;1.00;;;;;;5033479;28;20033;-88
2022/03/08 03:20:58;;;;;;;39.53;28.75;;;3.90;1.00;;;;;;5017157;28;20026;-88
2022/03/08 03:23:24;;;;;;;38.67;28.45;;;3.90;1.00;;;;;;5033545;28;20045;-88
2022/03/08 03:25:49;;;;;;;42.25;30.00;;;4.10;1.00;;;;;;5017697;28;20033;-88
2022/03/08 03:28:15;;;;;;;37.53;27.88;;;3.90;1.00;;;;;;5016212;28;20042;-88
2022/03/08 03:30:41;;;;;;;40.10;29.00;;;3.90;1.00;;;;;;5017918;28;20504;-88
2022/03/08 03:33:06;;;;;;;39.22;28.55;;;3.90;1.00;;;;;;5019551;28;20033;-88
2022/03/08 03:35:32;;;;;;;39.63;28.67;;;3.90;1.00;;;;;;5033436;28;20022;-88
2022/03/08 03:37:58;;;;;;;38.35;27.63;;;3.90;1.00;;;;;;5017237;28;20116;-89
2022/03/08 03:40:23;;;;;;;38.80;28.08;;;3.70;1.00;;;;;;5016804;28;20107;-88
2022/03/08 03:42:49;;;;;;;41.13;28.98;;;3.90;1.00;;;;;;5016621;28;20025;-88
2022/03/08 03:45:15;;;;;;;38.38;28.63;;;3.90;1.00;;;;;;5033748;28;20034;-88
2022/03/08 03:47:41;;;;;;;42.05;29.48;;;3.60;1.00;;;;;;5033610;28;20404;-87
2022/03/08 03:50:08;;;;;;;45.78;29.08;;;3.70;1.00;;;;;;5018343;28;20643;-88
2022/03/08 03:52:34;;;;;;;41.50;29.30;;;3.70;1.00;;;;;;5033406;28;20029;-88
2022/03/08 03:55:00;;;;;;;40.30;29.20;;;3.60;1.00;;;;;;5016089;28;20520;-88
2022/03/08 03:57:25;;;;;;;40.42;29.23;;;3.60;1.00;;;;;;5033698;28;20084;-88
2022/03/08 03:59:51;;;;;;;39.53;29.13;;;4.00;1.00;;;;;;5033082;28;20049;-88
2022/03/08 04:02:17;;;;;;;39.03;29.70;;;3.60;1.00;;;;;;5017759;28;20021;-89
2022/03/08 04:04:42;;;;;;;41.38;28.83;;;3.60;1.00;;;;;;5016057;28;20052;-88
2022/03/08 04:07:08;;;;;;;41.55;29.38;;;3.70;1.00;;;;;;5015373;28;20041;-88
2022/03/08 04:09:34;;;;;;;39.00;28.77;;;3.70;1.00;;;;;;5033420;28;20056;-88
2022/03/08 04:11:59;;;;;;;42.58;30.10;;;3.50;1.00;;;;;;5016511;28;20145;-88
2022/03/08 04:14:25;;;;;;;39.20;28.55;;;3.40;1.00;;;;;;5033014;28;20021;-88
2022/03/08 04:16:52;;;;;;;41.15;28.95;;;3.90;1.00;;;;;;5033531;28;20080;-88
2022/03/08 04:19:18;;;;;;;39.58;28.70;;;3.60;1.00;;;;;;5033583;28;20025;-89
2022/03/08 04:21:43;;;;;;;46.97;30.30;;;3.60;1.00;;;;;;5026090;28;20071;-88
2022/03/08 04:24:09;;;;;;;38.15;28.63;;;3.70;1.00;;;;;;5016442;28;20026;-88
2022/03/08 04:26:35;;;;;;;43.33;29.70;;;3.50;1.00;;;;;;5033723;28;20045;-89
2022/03/08 04:29:00;;;;;;;42.55;29.95;;;3.80;1.00;;;;;;5017661;28;20041;-88
2022/03/08 04:31:26;;;;;;;43.50;29.15;;;3.70;1.00;;;;;;5014715;28;20474;-89
2022/03/08 04:33:52;;;;;;;41.15;28.95;;;3.80;1.00;;;;;;5018082;28;20065;-89
2022/03/08 04:36:18;;;;;;;42.75;29.90;;;3.60;1.00;;;;;;5016672;28;20040;-88
2022/03/08 04:38:43;;;;;;;40.45;28.98;;;3.40;1.00;;;;;;5019365;28;20021;-88
2022/03/08 04:41:09;;;;;;;42.58;29.10;;;3.40;1.00;;;;;;5032959;28;20120;-89
2022/03/08 04:43:35;;;;;;;41.88;29.88;;;3.40;1.00;;;;;;5015324;28;20029;-89
2022/03/08 04:46:00;;;;;;;40.67;29.27;;;3.50;1.00;;;;;;5015333;28;20040;-89
2022/03/08 04:48:26;;;;;;;40.70;29.25;;;3.80;1.00;;;;;;5016582;28;20033;-88
2022/03/08 04:50:52;;;;;;;45.63;29.92;;;3.40;1.00;;;;;;5017534;28;20037;-89
2022/03/08 04:53:18;;;;;;;42.38;30.20;;;3.60;1.00;;;;;;5016071;28;20041;-88
2022/03/08 04:55:43;;;;;;;39.60;27.65;;;3.30;1.00;;;;;;5015843;28;20033;-89
2022/03/08 04:58:09;;;;;;;45.72;30.85;;;3.40;1.00;;;;;;5033090;28;20108;-89
2022/03/08 05:00:35;;;;;;;40.80;28.92;;;3.50;1.00;;;;;;5033109;28;20034;-89
2022/03/08 05:03:00;;;;;;;40.47;29.23;;;3.70;1.00;;;;;;5016954;28;20029;-89
2022/03/08 05:05:29;;;;;;;43.75;30.27;;;3.70;1.00;;;;;;5032510;28;20028;-89
2022/03/08 05:07:55;;;;;;;38.47;28.70;;;3.40;1.00;;;;;;5033223;28;20029;-89
2022/03/08 05:10:20;;;;;;;39.30;29.27;;;3.60;1.00;;;;;;5032184;28;20033;-89
2022/03/08 05:12:46;;;;;;;43.78;30.40;;;3.80;1.00;;;;;;5016125;28;20534;-88
2022/03/08 05:15:12;;;;;;;41.95;30.05;;;3.80;1.00;;;;;;5016044;28;20385;-89
2022/03/08 05:17:37;;;;;;;40.63;28.95;;;3.40;1.00;;;;;;5032698;28;20104;-89
2022/03/08 05:20:05;;;;;;;41.65;29.75;;;3.30;1.00;;;;;;5020683;28;20036;-89
2022/03/08 05:22:31;;;;;;;43.65;30.27;;;3.30;1.00;;;;;;5018905;28;20045;-89
2022/03/08 05:24:56;;;;;;;43.30;29.98;;;3.30;1.00;;;;;;5036859;28;20032;-89
2022/03/08 05:27:22;;;;;;;41.50;30.70;;;3.40;1.00;;;;;;5036052;28;20034;-88
2022/03/08 05:29:48;;;;;;;40.40;29.20;;;3.40;1.00;;;;;;5036591;28;20022;-88
2022/03/08 05:32:14;;;;;;;40.95;29.65;;;3.70;1.00;;;;;;5019914;28;20075;-89
2022/03/08 05:34:39;;;;;;;42.70;30.15;;;3.30;1.00;;;;;;5019003;28;20055;-89
2022/03/08 05:37:05;;;;;;;40.13;29.10;;;3.30;1.00;;;;;;5019715;28;20072;-88
2022/03/08 05:39:31;;;;;;;38.83;28.35;;;3.20;1.00;;;;;;5036260;28;20035;-88
2022/03/08 05:41:56;;;;;;;40.95;28.77;;;3.60;1.00;;;;;;5019657;28;20072;-89
2022/03/08 05:44:22;;;;;;;39.67;29.20;;;3.30;1.00;;;;;;5019810;28;20045;-89
2022/03/08 05:46:49;;;;;;;42.20;29.88;;;3.40;1.00;;;;;;5035629;28;20049;-89
2022/03/08 05:49:15;;;;;;;45.95;30.55;;;3.30;1.00;;;;;;5036087;28;20490;-89
2022/03/08 05:51:42;;;;;;;41.40;29.88;;;3.30;1.00;;;;;;5036861;28;20069;-88
2022/03/08 05:54:08;;;;;;;49.38;33.47;;;3.30;1.00;;;;;;5035723;28;20029;-88
2022/03/08 05:56:34;;;;;;;45.13;31.77;;;3.60;1.00;;;;;;5021262;28;20093;-89
2022/03/08 05:58:59;;;;;;;41.30;30.67;;;3.10;1.00;;;;;;5035588;28;20392;-89
2022/03/08 06:01:25;;;;;;;41.55;30.27;;;3.30;1.00;;;;;;5036176;28;20029;-88
2022/03/08 06:03:51;;;;;;;42.95;30.55;;;3.70;1.00;;;;;;5020452;28;20036;-88
2022/03/08 06:06:16;;;;;;;42.40;31.35;;;3.20;1.00;;;;;;5019467;28;20021;-89
2022/03/08 06:08:42;;;;;;;42.17;30.95;;;3.20;1.00;;;;;;5019292;28;20117;-89
2022/03/08 06:11:08;;;;;;;44.08;30.52;;;3.10;1.00;;;;;;5021338;28;20045;-89
2022/03/08 06:13:33;;;;;;;49.78;32.03;;;3.30;1.00;;;;;;5018145;28;20517;-89
2022/03/08 06:15:59;;;;;;;42.70;30.23;;;3.20;1.00;;;;;;5035726;28;20018;-89
2022/03/08 06:18:25;;;;;;;43.47;31.38;;;3.30;1.00;;;;;;5035741;28;20064;-88
2022/03/08 06:20:50;;;;;;;45.28;31.92;;;3.20;1.00;;;;;;5035076;28;20038;-89
2022/03/08 06:23:16;;;;;;;44.42;31.20;;;3.20;1.00;;;;;;5020605;28;20048;-89
2022/03/08 06:25:42;;;;;;;43.13;31.50;;;3.60;1.00;;;;;;5035438;28;20053;-89
2022/03/08 06:28:07;;;;;;;43.35;31.13;;;3.20;1.00;;;;;;5017888;28;20041;-88
2022/03/08 06:30:34;;;;;;;43.10;29.80;;;3.20;1.00;;;;;;5033837;28;20028;-89
2022/03/08 06:32:59;;;;;;;46.90;30.17;;;3.40;1.00;;;;;;5035166;28;20029;-89
2022/03/08 06:35:25;;;;;;;46.15;31.88;;;3.20;1.00;;;;;;5034900;28;20493;-89
2022/03/08 06:37:51;;;;;;;43.50;31.38;;;3.20;1.00;;;;;;5017445;28;20084;-90
2022/03/08 06:40:17;;;;;;;48.10;30.67;;;3.20;1.00;;;;;;5017487;28;20474;-88
2022/03/08 06:42:42;;;;;;;43.00;31.65;;;3.30;1.00;;;;;;5035260;28;20087;-89
2022/03/08 06:45:09;;;;;;;45.60;31.15;;;3.60;1.00;;;;;;5034917;28;20029;-88
2022/03/08 06:47:36;;;;;;;44.47;30.58;;;3.30;1.00;;;;;;5034478;28;20489;-89
2022/03/08 06:50:02;;;;;;;44.83;31.25;;;3.50;1.00;;;;;;5034888;28;20025;-89
2022/03/08 06:52:28;;;;;;;43.97;32.05;;;3.40;1.00;;;;;;5017387;28;20027;-89
2022/03/08 06:54:54;;;;;;;44.30;30.65;;;3.30;1.00;;;;;;5035318;28;20636;-89
2022/03/08 06:57:19;;;;;;;46.22;31.45;;;3.40;1.00;;;;;;5019195;28;20037;-89
2022/03/08 06:59:45;;;;;;;44.38;31.60;;;3.40;1.00;;;;;;5018657;28;20485;-89
2022/03/08 07:02:10;;;;;;;49.22;31.52;;;3.80;1.00;;;;;;5020756;28;20025;-89
2022/03/08 07:04:36;;;;;;;43.42;30.85;;;3.60;1.00;;;;;;5016911;28;20018;-89
2022/03/08 07:07:02;;;;;;;46.90;31.42;;;3.70;1.00;;;;;;5017345;28;20037;-89
2022/03/08 07:09:28;;;;;;;48.15;31.73;;;3.80;1.00;;;;;;5019778;28;20053;-89
2022/03/08 07:11:53;;;;;;;44.47;31.17;;;3.90;1.00;;;;;;5034624;28;20390;-89
2022/03/08 07:14:20;;;;;;;43.08;29.98;;;4.00;1.00;;;;;;5019410;28;20481;-89
2022/03/08 07:16:47;;;;;;;45.10;30.23;;;3.90;1.00;;;;;;5034290;28;20026;-89
2022/03/08 07:19:13;;;;;;;47.80;30.33;;;4.30;1.00;;;;;;5017290;28;20144;-89
2022/03/08 07:21:40;;;;;;;43.63;30.40;;;4.30;1.00;;;;;;5029589;28;20045;-88
2022/03/08 07:24:06;;;;;;;42.25;30.35;;;4.70;1.00;;;;;;5031755;28;20589;-89
2022/03/08 07:26:31;;;;;;;40.72;29.50;;;4.30;1.00;;;;;;5028041;28;20497;-88
2022/03/08 07:28:57;;;;;;;48.45;31.17;;;4.60;1.00;;;;;;5035721;28;20084;-89
2022/03/08 07:31:23;;;;;;;41.53;30.63;;;5.00;1.00;;;;;;5034070;28;20025;-89
2022/03/08 07:33:48;;;;;;;42.60;30.02;;;4.70;1.00;;;;;;5035273;28;20026;-89
2022/03/08 07:36:14;;;;;;;42.78;30.25;;;4.70;1.00;;;;;;5017233;28;20035;-84
2022/03/08 07:38:40;;;;;;;47.92;31.33;;;5.20;1.00;;;;;;5016252;28;20516;-83
2022/03/08 07:41:06;;;;;;;44.22;30.13;;;5.20;1.00;;;;;;5032047;28;20132;-83
2022/03/08 07:43:34;;;;;;;42.33;29.70;;;5.30;1.00;;;;;;5031626;28;20030;-83
2022/03/08 07:46:00;;;;;;;43.28;30.10;;;5.60;1.00;;;;;;5032290;28;20470;-84
2022/03/08 07:48:26;;;;;;;43.83;31.02;;;5.60;1.00;;;;;;5031978;28;20045;-83
2022/03/08 07:50:51;;;;;;;42.60;30.38;;;5.50;1.00;;;;;;5015472;28;20025;-83
2022/03/08 07:53:17;;;;;;;44.47;29.95;;;5.50;1.00;;;;;;5031240;28;20489;-84
2022/03/08 07:55:43;;;;;;;43.42;29.63;;;5.70;1.00;;;;;;5031978;28;20033;-83
2022/03/08 07:58:13;;;;;;;47.13;30.70;;;5.90;1.00;;;;;;5027775;28;20022;-83
2022/03/08 08:00:39;;;;;;;40.90;31.30;;;5.80;1.00;;;;;;5031535;28;20124;-83
2022/03/08 08:03:06;;;;;;;42.03;30.00;;;5.90;1.00;;;;;;5032866;28;20022;-84
2022/03/08 08:05:34;;;;;;;38.70;29.95;;;5.90;1.00;;;;;;5030965;28;20112;-84
2022/03/08 08:08:00;;;;;;;40.33;28.58;;;6.10;1.00;;;;;;5031705;28;20063;-83
2022/03/08 08:10:26;;;;;;;41.10;29.45;;;6.20;1.00;;;;;;5031635;28;20033;-83
2022/03/08 08:12:51;;;;;;;39.75;29.98;;;6.20;1.00;;;;;;5032061;28;20056;-82
2022/03/08 08:15:18;;;;;;;41.33;29.40;;;6.40;1.00;;;;;;5031650;28;20036;-84
2022/03/08 08:17:43;;;;;;;39.75;28.60;;;6.40;1.00;;;;;;5031543;28;20025;-83
2022/03/08 08:20:09;;;;;;;44.08;29.85;;;6.30;1.00;;;;;;5031890;28;20029;-83
2022/03/08 08:22:36;;;;;;;39.58;27.77;;;6.40;1.00;;;;;;5032120;28;20053;-83
2022/03/08 08:25:02;;;;;;;38.45;27.90;;;6.70;1.00;;;;;;5031450;28;20032;-83
2022/03/08 08:27:28;;;;;;;42.67;29.13;;;6.50;1.00;;;;;;5030916;28;20061;-83
2022/03/08 08:29:53;;;;;;;36.22;26.90;;;6.60;1.00;;;;;;5031517;28;20429;-83
2022/03/08 08:32:19;;;;;;;41.35;28.38;;;6.70;1.00;;;;;;5030908;28;20104;-83
2022/03/08 08:34:44;;;;;;;41.35;28.20;;;6.70;1.00;;;;;;5031211;28;20025;-83
2022/03/08 08:37:11;;;;;;;38.35;25.85;;;6.70;1.00;;;;;;5032104;28;20026;-83
2022/03/08 08:39:38;;;;;;;37.97;28.50;;;6.90;1.00;;;;;;5031002;28;20029;-83
2022/03/08 08:42:04;;;;;;;38.70;27.17;;;7.40;1.00;;;;;;5030894;28;20025;-83
2022/03/08 08:44:30;;;;;;;37.72;26.98;;;7.30;1.00;;;;;;5031148;28;20122;-83
2022/03/08 08:46:55;;;;;;;35.80;26.42;;;7.50;1.00;;;;;;5030782;28;20044;-83
2022/03/08 08:49:23;;;;;;;36.10;26.80;;;7.80;1.00;;;;;;5031423;28;20075;-84
2022/03/08 08:51:51;;;;;;;37.55;26.58;;;9.00;1.00;;;;;;5031647;28;20456;-83
2022/03/08 08:54:18;;;;;;;34.78;26.45;;;10.70;1.00;;;;;;5035857;28;20124;-84
2022/03/08 08:56:44;;;;;;;34.45;26.65;;;11.70;1.00;;;;;;5037907;28;20080;-84
2022/03/08 08:59:10;;;;;;;37.15;27.65;;;12.20;1.00;;;;;;5037735;28;20025;-83
2022/03/08 09:01:36;;;;;;;37.45;28.15;;;12.40;1.00;;;;;;5037229;28;20116;-84
2022/03/08 09:04:02;;;;;;;33.75;27.00;;;12.80;1.00;;;;;;5038336;28;20540;-84
2022/03/08 09:06:27;;;;;;;33.58;26.48;;;13.00;1.00;;;;;;5037295;28;20560;-84
2022/03/08 09:08:54;;;;;;;33.88;27.00;;;13.10;99.90;;;;;;5038169;28;20463;-84
2022/03/08 09:11:19;;;;;;;35.05;27.48;;;13.20;99.90;;;;;;5037430;28;20083;-84
2022/03/08 09:13:45;;;;;;;37.03;28.80;;;13.60;99.90;;;;;;5020271;28;20029;-84
2022/03/08 09:16:11;;;;;;;34.97;28.05;;;14.30;99.90;;;;;;5037796;28;20497;-84
2022/03/08 09:18:36;;;;;;;34.22;28.67;;;14.90;99.90;;;;;;5037275;28;20025;-84
2022/03/08 09:21:03;;;;;;;36.85;28.38;;;14.90;99.90;;;;;;5037540;28;20508;-85
2022/03/08 09:23:28;;;;;;;35.35;30.20;;;15.80;99.90;;;;;;5036642;28;20041;-84
2022/03/08 09:25:54;;;;;;;35.50;28.35;;;16.20;99.90;;;;;;5038362;28;20060;-84
2022/03/08 09:28:20;;;;;;;34.50;27.65;;;16.30;99.90;;;;;;5037954;28;20388;-84
2022/03/08 09:30:48;;;;;;;31.20;27.23;;;16.60;99.90;;;;;;5037346;28;20025;-84
2022/03/08 09:33:13;;;;;;;31.17;26.42;;;16.40;99.90;;;;;;5020681;28;20033;-85
2022/03/08 09:35:39;;;;;;;33.50;27.63;;;17.70;99.90;;;;;;5037056;28;20577;-85
2022/03/08 09:38:04;;;;;;;32.42;26.20;;;17.50;99.90;;;;;;5036991;28;20473;-85
2022/03/08 09:40:30;;;;;;;32.70;27.65;;;17.20;99.90;;;;;;5037560;28;20041;-85
2022/03/08 09:42:56;;;;;;;32.85;26.30;;;17.40;99.90;;;;;;5037739;28;20416;-85
2022/03/08 09:45:22;;;;;;;32.67;27.83;;;17.30;99.90;;;;;;5036825;28;20053;-85
2022/03/08 09:47:49;;;;;;;30.83;27.05;;;16.70;99.90;;;;;;5037065;28;20112;-84
2022/03/08 09:50:16;;;;;;;31.73;27.23;;;16.80;99.90;;;;;;5037181;28;20029;-85
2022/03/08 09:52:43;;;;;;;31.52;26.88;;;16.80;99.90;;;;;;5021370;28;20553;-85
2022/03/08 09:55:16;;;;;;;34.30;28.45;;;17.20;99.90;;;;;;5037603;28;20444;-84
2022/03/08 09:57:42;;;;;;;33.13;26.05;;;17.30;99.90;;;;;;5036846;28;20034;-85
2022/03/08 10:00:09;;;;;;;35.53;27.73;;;17.40;99.90;;;;;;5036554;28;20033;-84
2022/03/08 10:02:42;;;;;;;30.63;27.35;;;17.80;99.90;;;;;;5036651;28;20036;-85
2022/03/08 10:05:08;;;;;;;30.65;26.85;;;17.50;99.90;;;;;;5033812;28;20049;-85
2022/03/08 10:07:34;;;;;;;31.42;27.02;;;17.50;99.90;;;;;;5033840;28;20069;-84
2022/03/08 10:10:00;;;;;;;29.88;26.10;;;18.00;99.90;;;;;;5034290;28;20432;-84
2022/03/08 10:12:27;;;;;;;31.60;25.90;;;18.10;99.90;;;;;;5034207;28;20036;-85
2022/03/08 10:14:52;;;;;;;29.30;26.02;;;19.30;99.90;;;;;;5034170;28;20033;-84
2022/03/08 10:17:38;;;;;;;31.25;26.67;;;18.60;99.90;;;;;;5033603;28;20037;-85
2022/03/08 10:20:07;;;;;;;34.63;28.85;;;18.40;99.90;;;;;;5033423;28;20383;-84
2022/03/08 10:22:37;;;;;;;29.35;26.15;;;18.80;99.90;;;;;;5033386;28;21147;-85
2022/03/08 10:25:19;;;;;;;29.90;26.10;;;19.10;99.90;;;;;;5034391;28;20029;-85
2022/03/08 10:28:01;;;;;;;30.00;25.92;;;18.60;99.90;;;;;;5033573;28;20489;-84
2022/03/08 10:30:45;;;;;;;29.95;24.83;;;19.10;99.90;;;;;;5033221;28;20109;-84
2022/03/08 10:33:19;;;;;;;27.52;23.95;;;20.20;99.90;;;;;;5033492;28;20037;-84
2022/03/08 10:35:47;;;;;;;27.70;24.70;;;21.10;99.90;;;;;;5033386;28;20072;-84
2022/03/08 10:38:12;;;;;;;28.92;25.77;;;21.40;99.90;;;;;;5030434;28;20092;-84
2022/03/08 10:40:39;;;;;;;30.60;27.30;;;21.90;99.90;;;;;;5026944;28;20489;-85
2022/03/08 10:43:07;;;;;;;28.65;25.50;;;21.80;99.90;;;;;;5033268;28;20056;-86
2022/03/08 10:45:35;;;;;;;30.17;25.65;;;22.40;99.90;;;;;;5032877;28;20026;-87
2022/03/08 10:48:06;;;;;;;30.92;26.70;;;22.10;99.90;;;;;;5033523;28;20094;-85
2022/03/08 10:50:34;;;;;;;27.35;24.42;;;23.10;99.90;;;;;;5032938;28;20013;-85
2022/03/08 10:53:03;;;;;;;26.33;23.50;;;24.30;99.90;;;;;;5030806;28;20064;-86
2022/03/08 10:55:32;;;;;;;23.83;21.25;;;25.10;99.90;;;;;;5031121;28;20032;-85
2022/03/08 10:57:59;;;;;;;24.08;20.52;;;25.00;99.90;;;;;;5033432;28;20511;-85
2022/03/08 11:00:30;;;;;;;20.55;18.45;;;24.60;99.90;;;;;;5032963;28;20120;-85
2022/03/08 11:02:58;;;;;;;27.35;24.45;;;24.70;99.90;;;;;;5032051;28;20107;-86
2022/03/08 11:05:27;;;;;;;28.83;25.48;;;23.90;99.90;;;;;;5032487;28;20030;-85
2022/03/08 11:07:54;;;;;;;26.73;23.90;;;23.00;99.90;;;;;;5032898;28;20452;-86
2022/03/08 11:10:21;;;;;;;20.27;17.90;;;22.90;99.90;;;;;;5034434;28;20108;-87
2022/03/08 11:12:47;;;;;;;19.35;17.35;;;23.20;99.90;;;;;;5032517;28;20033;-86
2022/03/08 11:15:15;;;;;;;17.48;15.70;;;23.60;99.90;;;;;;5033058;28;20374;-86
2022/03/08 11:17:47;;;;;;;16.52;14.82;;;22.20;99.90;;;;;;5032375;28;20025;-86
2022/03/08 11:20:16;;;;;;;15.57;13.98;;;22.20;99.90;;;;;;5032570;28;20032;-86
2022/03/08 11:22:42;;;;;;;17.48;15.02;;;22.80;99.90;;;;;;5016755;28;20045;-86
2022/03/08 11:25:11;;;;;;;18.35;15.20;;;23.00;99.90;;;;;;5032830;28;20359;-86
2022/03/08 11:27:39;;;;;;;18.15;15.07;;;23.70;99.90;;;;;;5032008;28;20537;-85
2022/03/08 11:30:08;;;;;;;16.58;14.90;;;23.10;99.90;;;;;;5032274;28;20477;-85
2022/03/08 11:33:01;;;;;;;15.90;13.18;;;21.30;99.90;;;;;;5031416;28;20025;-85
2022/03/08 11:35:47;;;;;;;15.48;13.52;;;22.20;99.90;;;;;;5032069;28;20112;-85
2022/03/08 11:38:14;;;;;;;12.55;11.30;;;23.80;99.90;;;;;;5032172;28;20033;-84
2022/03/08 11:40:50;;;;;;;14.00;12.60;;;22.50;99.90;;;;;;5031477;28;20342;-85
2022/03/08 11:43:16;;;;;;;12.82;11.63;;;22.10;99.90;;;;;;5029545;28;20032;-86
2022/03/08 11:45:42;;;;;;;13.00;11.77;;;22.70;99.90;;;;;;5030595;28;20030;-86
2022/03/08 11:48:09;;;;;;;12.38;11.18;;;22.50;99.90;;;;;;5031141;28;20049;-86
2022/03/08 11:50:45;;;;;;;13.10;11.68;;;22.50;99.90;;;;;;5031607;28;20017;-87
2022/03/08 11:53:24;;;;;;;14.10;12.80;;;24.10;99.90;;;;;;5032526;28;20029;-88
2022/03/08 11:55:56;;;;;;;14.02;12.63;;;23.20;99.90;;;;;;5018295;28;20036;-88
2022/03/08 11:58:22;;;;;;;13.98;12.63;;;23.00;99.90;;;;;;5032652;28;20078;-86
2022/03/08 12:00:57;;;;;;;15.18;13.75;;;22.50;99.90;;;;;;5032788;28;20508;-85
2022/03/08 12:03:23;;;;;;;13.73;12.32;;;21.60;99.90;;;;;;5031892;28;20040;-87
2022/03/08 12:05:57;;;;;;;13.95;12.52;;;22.50;99.90;;;;;;5032093;28;20021;-86
2022/03/08 12:08:29;;;;;;;14.07;12.68;;;23.10;99.90;;;;;;5031390;28;20033;-86
2022/03/08 12:11:03;;;;;;;13.32;12.07;;;22.90;99.90;;;;;;5031865;28;20382;-86
2022/03/08 12:13:30;;;;;;;13.75;10.82;;;23.40;99.90;;;;;;5031783;28;20021;-87
2022/03/08 12:16:25;;;;;;;10.38;9.48;;;23.10;99.90;;;;;;5031827;28;20028;-87
2022/03/08 12:18:54;;;;;;;10.70;9.70;;;22.20;99.90;;;;;;5028149;28;20045;-86
2022/03/08 12:21:27;;;;;;;10.85;8.95;;;21.80;99.90;;;;;;5031737;28;20034;-85
2022/03/08 12:24:07;;;;;;;12.00;8.27;;;22.00;99.90;;;;;;5031364;28;20036;-85
2022/03/08 12:26:56;;;;;;;9.35;8.35;;;20.00;99.90;;;;;;5028703;28;20485;-85
2022/03/08 12:29:36;;;;;;;9.05;8.05;;;21.20;99.90;;;;;;5030608;28;20025;-85
2022/03/08 12:32:03;;;;;;;10.57;7.97;;;21.60;99.90;;;;;;5031380;28;20525;-84
2022/03/08 12:34:46;;;;;;;7.85;7.15;;;22.70;99.90;;;;;;5031645;28;20026;-85
2022/03/08 12:37:22;;;;;;;17.75;8.25;;;23.10;99.90;;;;;;5028168;28;20026;-84
2022/03/08 12:39:53;;;;;;;10.27;7.13;;;23.20;99.90;;;;;;5030919;28;20120;-85